createdAt,value
2023-03-17T00:00:25.218Z,54.80
2023-03-17T00:01:56.968Z,54.82
2023-03-17T00:03:29.850Z,54.67
2023-03-17T00:05:01.709Z,55.22
2023-03-17T00:06:33.907Z,55.23
2023-03-17T00:08:10.617Z,55.08
2023-03-17T00:09:42.136Z,55.54
2023-03-17T00:11:14.193Z,55.42
2023-03-17T00:12:45.861Z,55.35
2023-03-17T00:14:17.714Z,55.20
2023-03-17T00:15:52.387Z,55.12
2023-03-17T00:17:24.276Z,54.99
2023-03-17T00:18:55.838Z,55.17
2023-03-17T00:20:28.717Z,55.56
2023-03-17T00:22:01.028Z,55.66
2023-03-17T00:23:32.652Z,55.07
2023-03-17T00:25:06.827Z,55.89
2023-03-17T00:26:38.451Z,55.36
2023-03-17T00:28:13.983Z,55.36
2023-03-17T00:29:45.584Z,55.56
2023-03-17T00:31:18.007Z,55.50
2023-03-17T00:32:50.902Z,55.75
2023-03-17T00:34:22.488Z,55.40
2023-03-17T00:35:54.282Z,55.57
2023-03-17T00:37:25.832Z,56.04
2023-03-17T00:38:57.833Z,55.82
2023-03-17T00:40:31.405Z,56.13
2023-03-17T00:42:03.302Z,56.03
2023-03-17T00:43:34.829Z,55.78
2023-03-17T00:45:06.570Z,56.14
2023-03-17T00:46:38.663Z,56.03
2023-03-17T00:48:15.058Z,56.19
2023-03-17T00:49:46.642Z,55.89
2023-03-17T00:51:18.219Z,55.90
2023-03-17T00:52:50.577Z,55.92
2023-03-17T00:54:22.289Z,56.11
2023-03-17T00:55:54.311Z,55.94
2023-03-17T00:57:26.362Z,56.05
2023-03-17T00:58:58.185Z,55.95
2023-03-17T01:00:30.207Z,56.25
2023-03-17T01:02:02.087Z,55.64
2023-03-17T01:03:34.731Z,56.28
2023-03-17T01:05:07.448Z,56.08
2023-03-17T01:06:39.013Z,56.05
2023-03-17T01:08:11.048Z,56.27
2023-03-17T01:09:43.041Z,56.17
2023-03-17T01:11:15.251Z,56.08
2023-03-17T01:12:46.806Z,55.93
2023-03-17T01:14:18.354Z,55.98
2023-03-17T01:15:50.565Z,56.01
2023-03-17T01:17:22.218Z,56.50
2023-03-17T01:18:53.776Z,55.81
2023-03-17T01:20:26.374Z,56.01
2023-03-17T01:21:57.980Z,56.02
2023-03-17T01:23:30.242Z,55.86
2023-03-17T01:25:02.226Z,55.88
2023-03-17T01:26:33.864Z,56.24
2023-03-17T01:28:05.820Z,55.89
2023-03-17T01:29:37.759Z,55.90
2023-03-17T01:31:09.775Z,55.77
2023-03-17T01:32:41.480Z,55.97
2023-03-17T01:34:12.960Z,55.79
2023-03-17T01:35:46.308Z,56.21
2023-03-17T01:37:17.864Z,56.06
2023-03-17T01:38:51.144Z,55.86
2023-03-17T01:40:23.757Z,56.12
2023-03-17T01:42:00.407Z,55.71
2023-03-17T01:43:32.339Z,56.13
2023-03-17T01:45:05.729Z,56.49
2023-03-17T01:46:37.371Z,56.12
2023-03-17T01:48:09.276Z,56.36
2023-03-17T01:49:42.384Z,56.19
2023-03-17T01:51:16.632Z,56.30
2023-03-17T01:52:48.429Z,56.33
2023-03-17T01:54:30.134Z,56.13
2023-03-17T01:56:02.036Z,56.13
2023-03-17T01:57:37.209Z,56.15
2023-03-17T01:59:09.679Z,56.08
2023-03-17T02:00:41.239Z,56.24
2023-03-17T02:02:13.376Z,56.05
2023-03-17T02:03:45.323Z,56.12
2023-03-17T02:05:17.991Z,56.05
2023-03-17T02:06:58.578Z,56.11
2023-03-17T02:08:30.931Z,56.08
2023-03-17T02:10:02.551Z,55.59
2023-03-17T02:11:35.190Z,55.61
2023-03-17T02:13:08.127Z,55.70
2023-03-17T02:14:40.348Z,55.94
2023-03-17T02:16:16.120Z,55.92
2023-03-17T02:17:47.749Z,55.97
2023-03-17T02:19:19.236Z,56.13
2023-03-17T02:21:10.785Z,55.99
2023-03-17T02:22:43.360Z,56.07
2023-03-17T02:24:33.819Z,56.37
2023-03-17T02:26:05.582Z,56.05
2023-03-17T02:27:38.765Z,56.00
2023-03-17T02:29:11.675Z,56.07
2023-03-17T02:30:43.854Z,55.96
2023-03-17T02:32:16.182Z,56.20
2023-03-17T02:33:47.724Z,55.91
2023-03-17T02:35:20.574Z,56.00
2023-03-17T02:36:52.466Z,56.21
2023-03-17T02:38:24.051Z,56.03
2023-03-17T02:39:55.817Z,56.21
2023-03-17T02:41:27.627Z,56.29
2023-03-17T02:42:59.676Z,55.83
2023-03-17T02:44:31.590Z,55.74
2023-03-17T02:46:03.560Z,56.41
2023-03-17T02:47:35.775Z,56.29
2023-03-17T02:49:07.330Z,56.35
2023-03-17T02:50:38.932Z,56.52
2023-03-17T02:52:10.535Z,56.32
2023-03-17T02:53:42.155Z,56.18
2023-03-17T02:55:14.617Z,56.11
2023-03-17T02:56:46.600Z,56.48
2023-03-17T02:58:18.084Z,56.42
2023-03-17T02:59:49.865Z,56.18
2023-03-17T03:01:21.492Z,56.49
2023-03-17T03:02:53.160Z,56.48
2023-03-17T03:04:24.891Z,56.46
2023-03-17T03:05:58.367Z,56.46
2023-03-17T03:07:31.170Z,55.88
2023-03-17T03:09:03.827Z,56.16
2023-03-17T03:10:35.533Z,55.86
2023-03-17T03:12:10.000Z,56.43
2023-03-17T03:13:42.324Z,56.41
2023-03-17T03:15:14.755Z,55.89
2023-03-17T03:16:46.957Z,56.10
2023-03-17T03:18:18.479Z,56.21
2023-03-17T03:19:50.566Z,56.35
2023-03-17T03:21:22.387Z,56.59
2023-03-17T03:22:54.179Z,56.20
2023-03-17T03:24:25.710Z,56.10
2023-03-17T03:25:57.388Z,56.29
2023-03-17T03:27:28.934Z,56.19
2023-03-17T03:29:01.107Z,56.23
2023-03-17T03:30:33.409Z,56.23
2023-03-17T03:32:05.042Z,55.79
2023-03-17T03:33:36.765Z,55.95
2023-03-17T03:35:08.806Z,56.33
2023-03-17T03:36:40.677Z,56.06
2023-03-17T03:38:12.570Z,56.34
2023-03-17T03:39:45.146Z,56.41
2023-03-17T03:41:16.656Z,56.51
2023-03-17T03:42:48.198Z,56.06
2023-03-17T03:44:19.724Z,56.07
2023-03-17T03:45:51.529Z,56.46
2023-03-17T03:47:23.098Z,56.05
2023-03-17T03:48:55.079Z,56.18
2023-03-17T03:50:26.651Z,56.14
2023-03-17T03:51:58.618Z,56.48
2023-03-17T03:53:30.257Z,56.31
2023-03-17T03:55:01.727Z,56.66
2023-03-17T03:56:33.490Z,56.66
2023-03-17T03:58:04.986Z,56.33
2023-03-17T03:59:36.625Z,56.46
2023-03-17T04:01:08.157Z,56.31
2023-03-17T04:02:40.339Z,56.43
2023-03-17T04:04:11.851Z,56.54
2023-03-17T04:05:43.972Z,56.10
2023-03-17T04:07:15.762Z,56.37
2023-03-17T04:08:47.317Z,55.96
2023-03-17T04:10:18.810Z,56.06
2023-03-17T04:11:50.443Z,56.42
2023-03-17T04:13:22.385Z,56.47
2023-03-17T04:14:53.895Z,56.52
2023-03-17T04:16:25.485Z,56.44
2023-03-17T04:17:57.063Z,55.92
2023-03-17T04:19:28.955Z,56.63
2023-03-17T04:21:00.589Z,56.14
2023-03-17T04:22:32.050Z,56.25
2023-03-17T04:24:05.419Z,56.62
2023-03-17T04:25:36.921Z,55.97
2023-03-17T04:27:09.306Z,56.51
2023-03-17T04:28:40.949Z,56.17
2023-03-17T04:30:13.961Z,55.83
2023-03-17T04:31:45.997Z,56.44
2023-03-17T04:33:17.883Z,55.99
2023-03-17T04:34:49.514Z,56.00
2023-03-17T04:36:21.852Z,56.12
2023-03-17T04:37:53.391Z,56.11
2023-03-17T04:39:26.287Z,56.11
2023-03-17T04:40:57.825Z,56.04
2023-03-17T04:42:29.383Z,56.27
2023-03-17T04:44:03.805Z,56.36
2023-03-17T04:45:35.718Z,56.45
2023-03-17T04:47:07.740Z,56.23
2023-03-17T04:48:39.534Z,56.93
2023-03-17T04:50:11.730Z,56.42
2023-03-17T04:51:44.139Z,56.65
2023-03-17T04:53:16.276Z,56.33
2023-03-17T04:54:48.207Z,56.39
2023-03-17T04:56:19.894Z,56.39
2023-03-17T04:57:51.455Z,56.39
2023-03-17T04:59:23.256Z,56.32
2023-03-17T05:00:55.106Z,56.29
2023-03-17T05:02:26.781Z,56.16
2023-03-17T05:03:58.389Z,56.46
2023-03-17T05:05:29.893Z,56.36
2023-03-17T05:07:01.766Z,56.40
2023-03-17T05:08:33.248Z,55.99
2023-03-17T05:10:05.772Z,56.20
2023-03-17T05:11:37.414Z,56.60
2023-03-17T05:13:08.952Z,56.63
2023-03-17T05:14:40.656Z,56.62
2023-03-17T05:16:12.624Z,56.55
2023-03-17T05:17:44.221Z,56.65
2023-03-17T05:19:16.661Z,56.56
2023-03-17T05:20:48.624Z,56.30
2023-03-17T05:22:20.250Z,56.43
2023-03-17T05:23:54.580Z,56.08
2023-03-17T05:25:26.570Z,56.67
2023-03-17T05:26:58.264Z,56.73
2023-03-17T05:28:29.792Z,56.24
2023-03-17T05:30:02.237Z,56.31
2023-03-17T05:31:34.088Z,56.50
2023-03-17T05:33:06.246Z,56.46
2023-03-17T05:34:37.814Z,56.01
2023-03-17T05:36:09.390Z,56.52
2023-03-17T05:37:41.298Z,56.64
2023-03-17T05:39:14.603Z,56.81
2023-03-17T05:40:48.924Z,56.88
2023-03-17T05:42:20.771Z,56.56
2023-03-17T05:43:52.697Z,56.72
2023-03-17T05:45:24.434Z,56.57
2023-03-17T05:46:56.946Z,56.12
2023-03-17T05:48:28.431Z,56.62
2023-03-17T05:50:00.871Z,56.20
2023-03-17T05:51:32.689Z,56.16
2023-03-17T05:53:04.208Z,56.67
2023-03-17T05:54:35.803Z,56.14
2023-03-17T05:56:07.481Z,56.43
2023-03-17T05:57:39.190Z,56.09
2023-03-17T05:59:15.192Z,56.33
2023-03-17T06:00:47.486Z,56.37
2023-03-17T06:02:19.316Z,56.32
2023-03-17T06:03:50.956Z,56.48
2023-03-17T06:05:22.645Z,56.58
2023-03-17T06:06:54.392Z,56.71
2023-03-17T06:08:26.054Z,56.62
2023-03-17T06:09:57.721Z,56.93
2023-03-17T06:11:29.619Z,56.69
2023-03-17T06:13:03.853Z,56.77
2023-03-17T06:14:36.339Z,56.58
2023-03-17T06:16:08.491Z,56.60
2023-03-17T06:17:40.298Z,56.46
2023-03-17T06:19:12.336Z,56.19
2023-03-17T06:20:43.960Z,56.35
2023-03-17T06:22:15.490Z,56.50
2023-03-17T06:23:47.061Z,56.55
2023-03-17T06:25:19.124Z,56.46
2023-03-17T06:26:52.197Z,56.34
2023-03-17T06:28:24.199Z,56.49
2023-03-17T06:29:55.842Z,56.34
2023-03-17T06:31:27.952Z,56.76
2023-03-17T06:33:00.519Z,56.37
2023-03-17T06:34:32.967Z,56.49
2023-03-17T06:36:05.135Z,56.36
2023-03-17T06:37:37.402Z,56.54
2023-03-17T06:39:09.675Z,56.51
2023-03-17T06:40:41.815Z,56.63
2023-03-17T06:42:13.981Z,56.45
2023-03-17T06:43:45.544Z,56.71
2023-03-17T06:45:17.745Z,56.72
2023-03-17T06:46:49.724Z,56.64
2023-03-17T06:48:23.753Z,56.62
2023-03-17T06:49:55.565Z,56.66
2023-03-17T06:51:27.611Z,56.57
2023-03-17T06:52:59.595Z,56.55
2023-03-17T06:54:32.138Z,56.34
2023-03-17T06:56:05.217Z,56.25
2023-03-17T06:57:37.480Z,56.09
2023-03-17T06:59:09.112Z,56.15
2023-03-17T07:00:40.823Z,56.14
2023-03-17T07:02:12.798Z,56.02
2023-03-17T07:03:44.510Z,56.16
2023-03-17T07:05:18.126Z,56.22
2023-03-17T07:06:50.279Z,56.07
2023-03-17T07:08:22.204Z,55.95
2023-03-17T07:09:54.172Z,55.92
2023-03-17T07:11:26.424Z,56.37
2023-03-17T07:12:58.123Z,56.31
2023-03-17T07:14:29.781Z,56.17
2023-03-17T07:16:03.311Z,56.11
2023-03-17T07:17:35.379Z,56.29
2023-03-17T07:19:07.508Z,56.24
2023-03-17T07:20:39.614Z,55.88
2023-03-17T07:22:12.042Z,55.75
2023-03-17T07:23:44.047Z,55.90
2023-03-17T07:25:15.944Z,56.34
2023-03-17T07:26:47.511Z,55.87
2023-03-17T07:28:19.632Z,56.31
2023-03-17T07:29:52.098Z,55.95
2023-03-17T07:31:24.582Z,55.78
2023-03-17T07:32:56.313Z,56.26
2023-03-17T07:34:28.405Z,56.18
2023-03-17T07:36:00.298Z,56.06
2023-03-17T07:37:32.147Z,56.47
2023-03-17T07:39:04.044Z,55.74
2023-03-17T07:40:36.473Z,56.38
2023-03-17T07:42:08.616Z,56.16
2023-03-17T07:43:41.029Z,56.48
2023-03-17T07:45:13.576Z,56.48
2023-03-17T07:46:46.542Z,56.65
2023-03-17T07:48:18.552Z,56.11
2023-03-17T07:49:50.167Z,55.98
2023-03-17T07:51:22.570Z,56.33
2023-03-17T07:52:54.601Z,55.82
2023-03-17T07:54:28.000Z,55.85
2023-03-17T07:55:59.762Z,55.89
2023-03-17T07:57:31.913Z,56.06
2023-03-17T07:59:03.557Z,56.08
2023-03-17T08:00:35.729Z,55.35
2023-03-17T08:02:07.643Z,55.70
2023-03-17T08:03:41.489Z,55.66
2023-03-17T08:05:14.357Z,55.25
2023-03-17T08:06:47.048Z,55.55
2023-03-17T08:08:20.369Z,55.78
2023-03-17T08:09:52.905Z,55.62
2023-03-17T08:11:24.566Z,55.65
2023-03-17T08:12:56.520Z,55.04
2023-03-17T08:14:28.298Z,55.19
2023-03-17T08:16:00.706Z,55.69
2023-03-17T08:17:33.032Z,55.17
2023-03-17T08:19:05.142Z,55.57
2023-03-17T08:20:36.769Z,55.58
2023-03-17T08:22:08.767Z,55.20
2023-03-17T08:23:40.596Z,55.08
2023-03-17T08:25:12.772Z,55.34
2023-03-17T08:26:47.642Z,55.68
2023-03-17T08:28:19.701Z,54.86
2023-03-17T08:29:51.447Z,55.01
2023-03-17T08:31:23.211Z,55.03
2023-03-17T08:32:55.108Z,55.04
2023-03-17T08:34:26.883Z,55.27
2023-03-17T08:35:59.387Z,54.87
2023-03-17T08:37:31.691Z,54.65
2023-03-17T08:39:04.832Z,55.03
2023-03-17T08:40:37.002Z,54.91
2023-03-17T08:42:08.866Z,55.00
2023-03-17T08:43:40.618Z,54.94
2023-03-17T08:45:13.200Z,54.59
2023-03-17T08:46:44.921Z,54.75
2023-03-17T08:48:16.828Z,54.72
2023-03-17T08:49:48.482Z,54.24
2023-03-17T08:51:24.125Z,54.82
2023-03-17T08:52:55.969Z,54.69
2023-03-17T08:54:28.064Z,54.69
2023-03-17T08:56:00.094Z,53.89
2023-03-17T08:57:32.696Z,54.42
2023-03-17T08:59:06.442Z,53.72
2023-03-17T09:00:38.260Z,54.17
2023-03-17T09:02:11.666Z,53.56
2023-03-17T09:03:43.497Z,54.08
2023-03-17T09:05:16.913Z,53.76
2023-03-17T09:07:02.305Z,53.62
2023-03-17T09:08:35.052Z,53.81
2023-03-17T09:10:07.413Z,53.40
2023-03-17T09:11:39.092Z,53.45
2023-03-17T09:13:10.680Z,53.50
2023-03-17T09:14:44.332Z,53.88
2023-03-17T09:16:18.263Z,53.84
2023-03-17T09:17:49.905Z,53.94
2023-03-17T09:19:22.159Z,53.56
2023-03-17T09:20:53.791Z,53.38
2023-03-17T09:22:25.462Z,53.03
2023-03-17T09:23:57.028Z,53.08
2023-03-17T09:25:28.777Z,53.06
2023-03-17T09:27:01.625Z,52.79
2023-03-17T09:28:34.254Z,52.30
2023-03-17T09:30:06.487Z,52.15
2023-03-17T09:31:38.542Z,52.25
2023-03-17T09:33:13.756Z,52.19
2023-03-17T09:34:46.187Z,51.99
2023-03-17T09:36:17.972Z,51.82
2023-03-17T09:37:49.686Z,52.00
2023-03-17T09:39:23.192Z,51.57
2023-03-17T09:40:58.088Z,52.07
2023-03-17T09:42:33.682Z,52.03
2023-03-17T09:44:09.162Z,52.17
2023-03-17T09:45:43.563Z,51.58
2023-03-17T09:47:30.609Z,51.17
2023-03-17T09:49:03.995Z,51.60
2023-03-17T09:50:46.198Z,51.31
2023-03-17T09:52:19.285Z,51.30
2023-03-17T09:53:51.016Z,50.93
2023-03-17T09:55:27.404Z,50.77
2023-03-17T09:57:07.525Z,50.84
2023-03-17T09:58:40.062Z,51.07
2023-03-17T10:00:15.709Z,50.53
2023-03-17T10:01:47.993Z,50.73
2023-03-17T10:03:19.720Z,51.14
2023-03-17T10:04:51.940Z,51.05
2023-03-17T10:06:42.666Z,51.65
2023-03-17T10:08:33.074Z,51.06
2023-03-17T10:10:06.256Z,50.98
2023-03-17T10:11:39.842Z,50.46
2023-03-17T10:13:17.288Z,50.99
2023-03-17T10:15:01.353Z,51.17
2023-03-17T10:16:41.764Z,50.44
2023-03-17T10:18:13.946Z,50.92
2023-03-17T10:19:46.192Z,50.13
2023-03-17T10:21:18.674Z,50.10
2023-03-17T10:23:19.206Z,49.91
2023-03-17T10:24:51.918Z,50.18
2023-03-17T10:26:29.380Z,49.93
2023-03-17T10:28:01.387Z,49.63
2023-03-17T10:29:33.302Z,49.62
2023-03-17T10:31:15.249Z,49.64
2023-03-17T10:32:47.067Z,50.14
2023-03-17T10:34:23.809Z,50.83
2023-03-17T10:35:55.457Z,50.61
2023-03-17T10:37:29.425Z,50.19
2023-03-17T10:39:01.598Z,50.62
2023-03-17T10:40:33.683Z,50.29
2023-03-17T10:42:09.602Z,50.10
2023-03-17T10:43:42.643Z,49.99
2023-03-17T10:45:15.525Z,49.58
2023-03-17T10:46:52.851Z,49.52
2023-03-17T10:48:25.159Z,49.63
2023-03-17T10:49:56.973Z,49.82
2023-03-17T10:51:35.673Z,49.13
2023-03-17T10:53:08.510Z,49.23
2023-03-17T10:54:42.176Z,49.25
2023-03-17T10:56:37.088Z,49.42
2023-03-17T10:58:15.768Z,49.39
2023-03-17T10:59:55.626Z,48.70
2023-03-17T11:01:31.157Z,48.94
2023-03-17T11:03:21.878Z,49.12
2023-03-17T11:05:13.706Z,49.08
2023-03-17T11:06:47.460Z,48.93
2023-03-17T11:08:19.126Z,48.62
2023-03-17T11:09:52.122Z,48.81
2023-03-17T11:11:26.620Z,48.32
2023-03-17T11:12:59.570Z,48.46
2023-03-17T11:14:31.386Z,48.54
2023-03-17T11:16:11.080Z,48.19
2023-03-17T11:17:43.167Z,48.63
2023-03-17T11:19:15.599Z,48.11
2023-03-17T11:21:03.326Z,48.48
2023-03-17T11:22:39.012Z,47.77
2023-03-17T11:24:13.128Z,47.82
2023-03-17T11:25:44.890Z,47.60
2023-03-17T11:27:16.642Z,47.60
2023-03-17T11:28:54.038Z,47.06
2023-03-17T11:30:25.663Z,47.25
2023-03-17T11:31:58.923Z,47.04
2023-03-17T11:33:40.864Z,47.36
2023-03-17T11:35:16.841Z,46.90
2023-03-17T11:37:01.398Z,47.02
2023-03-17T11:38:35.184Z,47.03
2023-03-17T11:40:12.320Z,46.53
2023-03-17T11:41:46.812Z,47.19
2023-03-17T11:43:24.576Z,47.62
2023-03-17T11:45:15.824Z,47.36
2023-03-17T11:46:49.501Z,46.64
2023-03-17T11:48:23.987Z,46.84
2023-03-17T11:49:59.967Z,47.17
2023-03-17T11:51:34.757Z,46.97
2023-03-17T11:53:19.172Z,47.03
2023-03-17T11:54:55.980Z,46.93
2023-03-17T11:56:48.070Z,46.74
2023-03-17T11:58:24.622Z,46.13
2023-03-17T11:59:58.122Z,45.91
2023-03-17T12:01:32.465Z,46.06
2023-03-17T12:03:23.418Z,46.79
2023-03-17T12:04:57.451Z,46.63
2023-03-17T12:06:30.692Z,46.67
2023-03-17T12:08:04.131Z,47.20
2023-03-17T12:09:41.079Z,47.21
2023-03-17T12:11:13.284Z,46.79
2023-03-17T12:12:48.341Z,46.23
2023-03-17T12:14:20.054Z,45.95
2023-03-17T12:15:53.206Z,46.40
2023-03-17T12:17:29.674Z,46.28
2023-03-17T12:19:04.358Z,46.08
2023-03-17T12:20:36.111Z,46.33
2023-03-17T12:22:28.610Z,45.97
2023-03-17T12:24:02.090Z,45.95
2023-03-17T12:25:54.243Z,46.60
2023-03-17T12:27:48.875Z,45.83
2023-03-17T12:29:39.281Z,46.57
2023-03-17T12:31:15.947Z,45.94
2023-03-17T12:32:53.866Z,46.28
2023-03-17T12:34:33.838Z,46.79
2023-03-17T12:36:05.621Z,46.42
2023-03-17T12:37:37.168Z,46.51
2023-03-17T12:39:27.433Z,46.07
2023-03-17T12:41:05.655Z,45.97
2023-03-17T12:42:37.812Z,46.18
2023-03-17T12:44:32.180Z,46.11
2023-03-17T12:46:11.341Z,46.46
2023-03-17T12:47:48.652Z,46.04
2023-03-17T12:49:22.995Z,45.67
2023-03-17T12:51:07.038Z,46.01
2023-03-17T12:52:38.874Z,45.42
2023-03-17T12:54:15.426Z,45.71
2023-03-17T12:55:48.001Z,46.18
2023-03-17T12:57:21.208Z,45.17
2023-03-17T12:58:53.612Z,45.16
2023-03-17T13:00:25.554Z,44.96
2023-03-17T13:01:58.955Z,45.00
2023-03-17T13:03:32.566Z,45.40
2023-03-17T13:05:10.497Z,45.91
2023-03-17T13:06:42.756Z,45.96
2023-03-17T13:08:16.438Z,46.64
2023-03-17T13:09:54.020Z,46.09
2023-03-17T13:11:27.458Z,46.05
2023-03-17T13:13:22.074Z,46.30
2023-03-17T13:14:53.608Z,45.75
2023-03-17T13:16:34.309Z,45.91
2023-03-17T13:18:18.749Z,46.01
2023-03-17T13:19:56.990Z,44.98
2023-03-17T13:21:31.023Z,45.87
2023-03-17T13:23:13.250Z,45.97
2023-03-17T13:24:48.740Z,46.09
2023-03-17T13:26:21.340Z,45.63
2023-03-17T13:27:52.925Z,45.81
2023-03-17T13:29:33.457Z,45.77
2023-03-17T13:31:14.295Z,45.51
2023-03-17T13:32:54.588Z,46.32
2023-03-17T13:34:26.214Z,46.03
2023-03-17T13:36:06.896Z,45.38
2023-03-17T13:37:48.435Z,45.44
2023-03-17T13:39:22.360Z,45.10
2023-03-17T13:41:07.415Z,45.61
2023-03-17T13:42:44.715Z,44.77
2023-03-17T13:44:23.362Z,44.87
2023-03-17T13:45:56.237Z,44.84
2023-03-17T13:47:31.961Z,44.60
2023-03-17T13:49:23.443Z,44.68
2023-03-17T13:51:18.361Z,45.18
2023-03-17T13:52:56.916Z,44.48
2023-03-17T13:54:28.892Z,44.54
2023-03-17T13:56:08.232Z,44.99
2023-03-17T13:57:39.885Z,44.30
2023-03-17T13:59:12.745Z,44.70
2023-03-17T14:00:49.519Z,45.19
2023-03-17T14:02:21.658Z,45.06
2023-03-17T14:03:54.339Z,44.23
2023-03-17T14:05:27.339Z,44.73
2023-03-17T14:06:59.719Z,45.19
2023-03-17T14:08:31.555Z,44.60
2023-03-17T14:10:05.113Z,45.65
2023-03-17T14:11:37.940Z,44.98
2023-03-17T14:13:19.104Z,45.13
2023-03-17T14:14:50.875Z,44.95
2023-03-17T14:16:30.179Z,45.02
2023-03-17T14:18:31.520Z,44.79
2023-03-17T14:20:08.568Z,44.33
2023-03-17T14:21:40.961Z,44.04
2023-03-17T14:23:12.745Z,44.72
2023-03-17T14:24:44.389Z,44.38
2023-03-17T14:26:15.876Z,44.39
2023-03-17T14:27:52.704Z,44.85
2023-03-17T14:29:28.806Z,44.49
2023-03-17T14:31:03.902Z,44.97
2023-03-17T14:32:35.811Z,44.58
2023-03-17T14:34:11.698Z,45.33
2023-03-17T14:35:43.836Z,45.15
2023-03-17T14:37:15.934Z,45.21
2023-03-17T14:38:51.806Z,45.24
2023-03-17T14:40:24.536Z,44.96
2023-03-17T14:42:00.184Z,45.13
2023-03-17T14:43:32.076Z,44.66
2023-03-17T14:45:07.549Z,45.12
2023-03-17T14:46:40.707Z,45.43
2023-03-17T14:48:16.719Z,45.08
2023-03-17T14:49:48.364Z,44.95
2023-03-17T14:51:30.724Z,45.06
2023-03-17T14:53:02.262Z,44.98
2023-03-17T14:54:34.181Z,45.13
2023-03-17T14:56:06.026Z,44.70
2023-03-17T14:57:37.902Z,45.27
2023-03-17T14:59:15.588Z,44.76
2023-03-17T15:00:49.976Z,44.98
2023-03-17T15:02:23.067Z,45.01
2023-03-17T15:03:56.711Z,45.20
2023-03-17T15:05:31.056Z,44.97
2023-03-17T15:07:03.820Z,45.13
2023-03-17T15:08:36.483Z,45.02
2023-03-17T15:10:20.206Z,45.11
2023-03-17T15:11:52.980Z,44.85
2023-03-17T15:13:25.089Z,45.08
2023-03-17T15:14:58.674Z,45.20
2023-03-17T15:16:30.744Z,45.15
2023-03-17T15:18:07.019Z,45.00
2023-03-17T15:19:40.667Z,45.02
2023-03-17T15:21:28.445Z,45.09
2023-03-17T15:23:06.675Z,45.43
2023-03-17T15:24:39.729Z,45.54
2023-03-17T15:26:21.517Z,44.96
2023-03-17T15:27:53.284Z,45.47
2023-03-17T15:29:24.795Z,45.28
2023-03-17T15:30:56.999Z,45.31
2023-03-17T15:32:29.246Z,45.20
2023-03-17T15:34:00.991Z,45.02
2023-03-17T15:35:32.673Z,45.29
2023-03-17T15:37:04.371Z,44.94
2023-03-17T15:38:39.075Z,44.89
2023-03-17T15:40:11.666Z,44.93
2023-03-17T15:41:43.485Z,45.00
2023-03-17T15:43:15.804Z,45.37
2023-03-17T15:44:47.379Z,45.38
2023-03-17T15:46:23.906Z,44.96
2023-03-17T15:47:56.547Z,44.77
2023-03-17T15:49:28.274Z,45.02
2023-03-17T15:51:00.226Z,44.96
2023-03-17T15:52:32.059Z,44.39
2023-03-17T15:54:04.165Z,44.33
2023-03-17T15:55:35.871Z,44.45
2023-03-17T15:57:08.548Z,44.42
2023-03-17T15:58:40.452Z,44.34
2023-03-17T16:00:15.473Z,44.57
2023-03-17T16:01:47.272Z,44.51
2023-03-17T16:03:20.093Z,44.68
2023-03-17T16:04:53.580Z,44.51
2023-03-17T16:06:25.372Z,44.71
2023-03-17T16:07:57.478Z,44.78
2023-03-17T16:09:29.073Z,44.72
2023-03-17T16:11:03.674Z,44.43
2023-03-17T16:12:35.407Z,44.71
2023-03-17T16:14:07.169Z,44.32
2023-03-17T16:15:39.554Z,44.15
2023-03-17T16:17:19.978Z,44.05
2023-03-17T16:18:51.848Z,44.10
2023-03-17T16:20:27.131Z,44.09
2023-03-17T16:21:58.752Z,44.07
2023-03-17T16:23:31.375Z,44.56
2023-03-17T16:25:03.781Z,44.21
2023-03-17T16:26:35.682Z,44.77
2023-03-17T16:28:23.402Z,44.91
2023-03-17T16:29:55.386Z,44.92
2023-03-17T16:31:30.262Z,44.85
2023-03-17T16:33:02.682Z,45.08
2023-03-17T16:34:34.379Z,45.29
2023-03-17T16:36:06.382Z,45.30
2023-03-17T16:37:38.198Z,45.35
2023-03-17T16:39:17.014Z,45.22
2023-03-17T16:40:49.563Z,45.14
2023-03-17T16:42:21.800Z,45.20
2023-03-17T16:43:55.342Z,44.98
2023-03-17T16:45:32.894Z,44.81
2023-03-17T16:47:04.661Z,44.55
2023-03-17T16:48:36.589Z,44.35
2023-03-17T16:50:14.561Z,44.71
2023-03-17T16:51:46.356Z,44.56
2023-03-17T16:53:18.130Z,44.06
2023-03-17T16:54:49.943Z,44.54
2023-03-17T16:56:22.813Z,44.39
2023-03-17T16:57:55.462Z,44.24
2023-03-17T16:59:31.501Z,44.27
2023-03-17T17:01:04.362Z,44.75
2023-03-17T17:02:35.966Z,44.36
2023-03-17T17:04:11.734Z,44.45
2023-03-17T17:05:43.527Z,44.48
2023-03-17T17:07:15.973Z,44.31
2023-03-17T17:08:47.540Z,44.76
2023-03-17T17:10:19.677Z,44.18
2023-03-17T17:11:51.398Z,44.38
2023-03-17T17:13:22.913Z,45.03
2023-03-17T17:14:54.477Z,45.05
2023-03-17T17:16:29.673Z,45.10
2023-03-17T17:18:02.062Z,44.62
2023-03-17T17:19:33.601Z,45.03
2023-03-17T17:21:05.194Z,45.29
2023-03-17T17:22:36.790Z,45.37
2023-03-17T17:24:12.376Z,44.55
2023-03-17T17:25:44.133Z,44.55
2023-03-17T17:27:16.135Z,45.60
2023-03-17T17:28:48.118Z,44.77
2023-03-17T17:30:20.828Z,45.33
2023-03-17T17:31:52.606Z,45.67
2023-03-17T17:33:25.457Z,45.60
2023-03-17T17:34:57.558Z,45.22
2023-03-17T17:36:29.473Z,45.52
2023-03-17T17:38:04.338Z,45.82
2023-03-17T17:39:35.857Z,45.26
2023-03-17T17:41:09.156Z,45.30
2023-03-17T17:42:40.923Z,45.11
2023-03-17T17:44:12.635Z,45.86
2023-03-17T17:45:44.471Z,45.56
2023-03-17T17:47:16.430Z,45.94
2023-03-17T17:48:48.352Z,46.00
2023-03-17T17:50:25.041Z,46.45
2023-03-17T17:51:56.854Z,46.25
2023-03-17T17:53:28.525Z,46.14
2023-03-17T17:55:01.673Z,46.71
2023-03-17T17:56:36.939Z,46.33
2023-03-17T17:58:09.457Z,46.35
2023-03-17T17:59:41.155Z,46.23
2023-03-17T18:01:14.427Z,46.36
2023-03-17T18:02:46.676Z,45.99
2023-03-17T18:04:18.484Z,46.30
2023-03-17T18:05:50.526Z,46.83
2023-03-17T18:07:22.509Z,46.74
2023-03-17T18:08:57.872Z,46.37
2023-03-17T18:10:29.961Z,46.62
2023-03-17T18:12:01.727Z,46.69
2023-03-17T18:13:36.210Z,46.29
2023-03-17T18:15:08.189Z,46.85
2023-03-17T18:16:39.783Z,46.93
2023-03-17T18:18:11.387Z,46.81
2023-03-17T18:19:43.009Z,47.15
2023-03-17T18:21:14.852Z,46.48
2023-03-17T18:22:46.844Z,46.75
2023-03-17T18:24:18.872Z,46.79
2023-03-17T18:25:50.497Z,46.82
2023-03-17T18:27:22.509Z,46.68
2023-03-17T18:28:54.094Z,46.99
2023-03-17T18:30:29.938Z,47.00
2023-03-17T18:32:02.141Z,47.17
2023-03-17T18:33:34.019Z,47.29
2023-03-17T18:35:08.416Z,46.83
2023-03-17T18:36:40.759Z,46.62
2023-03-17T18:38:12.344Z,47.13
2023-03-17T18:39:47.329Z,47.09
2023-03-17T18:41:22.404Z,47.00
2023-03-17T18:42:54.275Z,47.12
2023-03-17T18:44:26.032Z,47.11
2023-03-17T18:45:57.879Z,47.12
2023-03-17T18:47:29.949Z,47.17
2023-03-17T18:49:01.713Z,47.07
2023-03-17T18:50:33.598Z,46.93
2023-03-17T18:52:05.560Z,47.21
2023-03-17T18:53:38.306Z,46.81
2023-03-17T18:55:10.769Z,47.08
2023-03-17T18:56:42.870Z,47.23
2023-03-17T18:58:14.892Z,47.20
2023-03-17T18:59:46.903Z,47.26
2023-03-17T19:01:19.021Z,47.10
2023-03-17T19:02:50.738Z,46.84
2023-03-17T19:04:22.535Z,47.13
2023-03-17T19:05:54.694Z,47.16
2023-03-17T19:07:26.289Z,46.95
2023-03-17T19:08:58.308Z,46.81
2023-03-17T19:10:30.751Z,46.83
2023-03-17T19:12:02.707Z,47.05
2023-03-17T19:13:34.590Z,46.63
2023-03-17T19:15:06.682Z,46.80
2023-03-17T19:16:38.676Z,46.67
2023-03-17T19:18:10.362Z,46.93
2023-03-17T19:19:43.040Z,47.07
2023-03-17T19:21:14.820Z,46.93
2023-03-17T19:22:46.645Z,47.15
2023-03-17T19:24:18.263Z,47.12
2023-03-17T19:25:50.189Z,47.23
2023-03-17T19:27:22.307Z,47.16
2023-03-17T19:28:56.349Z,47.29
2023-03-17T19:30:28.152Z,47.20
2023-03-17T19:32:00.091Z,47.41
2023-03-17T19:33:32.874Z,47.41
2023-03-17T19:35:04.775Z,47.24
2023-03-17T19:36:37.178Z,47.32
2023-03-17T19:38:08.847Z,47.28
2023-03-17T19:39:41.312Z,47.42
2023-03-17T19:41:13.606Z,47.67
2023-03-17T19:42:45.459Z,47.48
2023-03-17T19:44:17.246Z,47.75
2023-03-17T19:45:49.009Z,47.85
2023-03-17T19:47:21.505Z,47.77
2023-03-17T19:48:53.911Z,47.64
2023-03-17T19:50:25.918Z,47.84
2023-03-17T19:51:57.504Z,47.86
2023-03-17T19:53:29.314Z,47.60
2023-03-17T19:55:00.934Z,47.73
2023-03-17T19:56:33.890Z,47.96
2023-03-17T19:58:08.312Z,47.82
2023-03-17T19:59:40.451Z,47.61
2023-03-17T20:01:13.339Z,47.73
2023-03-17T20:02:45.211Z,47.57
2023-03-17T20:04:21.046Z,47.65
2023-03-17T20:05:52.713Z,47.66